Overview Statistics Trail Chart Weather Telemetry Raw packets
 

This is the latest recevied weather packets stored in our database for station/object HG8GL-6. If no packets are shown the sender has not sent any weather packets the latest 10 day(s).

<< 21 22 23 24 25 26 27 >>
Time Temp. Humidity Pressure Rain* Wind** Luminosity Snow
1788331708 21.11° C 59% 1022 hPa 0 mm - - -
1788331078 20.56° C 63% 1022 hPa 0 mm - - -
1788330448 19.44° C 66% 1022 hPa 0 mm - - -
1788329848 18.33° C 67% 1021 hPa 0 mm - - -
1788329218 17.78° C 69% 1022 hPa 0 mm - - -
1788328588 17.22° C 70% 1022 hPa 0 mm - - -
1788327988 16.67° C 72% 1022 hPa 0 mm - - -
1788327358 16.11° C 73% 1022 hPa 0 mm - - -
1788326758 15.56° C 74% 1022 hPa 0 mm - - -
1788326128 15° C 74% 1021 hPa 0 mm - - -
1788325528 15° C 74% 1022 hPa 0 mm - - -
1788324928 15° C 74% 1022 hPa 0 mm - - -
1788324328 14.44° C 73% 1021 hPa 0 mm - - -
1788323728 14.44° C 73% 1021 hPa 0 mm - - -
1788323128 14.44° C 73% 1021 hPa 0 mm - - -
1788322498 15° C 72% 1021 hPa 0 mm - - -
1788321868 15° C 71% 1021 hPa 0 mm - - -
1788321238 15° C 70% 1021 hPa 0 mm - - -
1788320638 15.56° C 70% 1022 hPa 0 mm - - -
1788320038 15.56° C 69% 1021 hPa 0 mm - - -
1788319438 15.56° C 68% 1021 hPa 0 mm - - -
1788318808 16.11° C 68% 1021 hPa 0 mm - - -
1788318208 16.11° C 67% 1021 hPa 0 mm - - -
1788317578 16.11° C 66% 1021 hPa 0 mm - - -
1788316948 16.11° C 66% 1021 hPa 0 mm - - -

* Rain latest hour (hover to see other rain measurements)
** Current wind speed in m/s (hover to see current wind gust speed)